sensor_id;sensor_type;location;lat;lon;timestamp;pressure;altitude;pressure_sealevel;temperature;humidity
57763;BME280;43592;42.524;12.052;2022-09-03T00:01:51;96732.09;;;16.07;100.00
57763;BME280;43592;42.524;12.052;2022-09-03T00:04:31;96737.91;;;16.09;100.00
57763;BME280;43592;42.524;12.052;2022-09-03T00:07:05;96735.63;;;16.11;100.00
57763;BME280;43592;42.524;12.052;2022-09-03T00:09:40;96740.59;;;16.09;100.00
57763;BME280;43592;42.524;12.052;2022-09-03T00:14:35;96737.44;;;16.00;100.00
57763;BME280;43592;42.524;12.052;2022-09-03T00:17:03;96735.44;;;15.93;100.00
57763;BME280;43592;42.524;12.052;2022-09-03T00:19:39;96729.59;;;15.87;100.00
57763;BME280;43592;42.524;12.052;2022-09-03T00:22:09;96738.06;;;15.86;100.00
57763;BME280;43592;42.524;12.052;2022-09-03T00:24:38;96730.34;;;15.84;100.00
57763;BME280;43592;42.524;12.052;2022-09-03T00:27:12;96743.81;;;15.84;100.00
57763;BME280;43592;42.524;12.052;2022-09-03T00:30:02;96739.94;;;15.82;100.00
57763;BME280;43592;42.524;12.052;2022-09-03T00:32:27;96736.81;;;15.76;100.00
57763;BME280;43592;42.524;12.052;2022-09-03T00:34:57;96737.53;;;15.73;100.00
57763;BME280;43592;42.524;12.052;2022-09-03T00:37:25;96737.53;;;15.73;100.00
57763;BME280;43592;42.524;12.052;2022-09-03T00:39:57;96733.28;;;15.68;100.00
57763;BME280;43592;42.524;12.052;2022-09-03T00:44:53;96732.81;;;15.63;100.00
57763;BME280;43592;42.524;12.052;2022-09-03T01:00:24;96728.41;;;15.51;100.00
57763;BME280;43592;42.524;12.052;2022-09-03T01:10:44;96726.88;;;15.50;100.00
57763;BME280;43592;42.524;12.052;2022-09-03T01:28:54;96749.03;;;15.66;100.00
57763;BME280;43592;42.524;12.052;2022-09-03T01:31:35;96752.88;;;15.65;100.00
57763;BME280;43592;42.524;12.052;2022-09-03T01:34:16;96761.31;;;15.64;100.00
57763;BME280;43592;42.524;12.052;2022-09-03T01:39:44;96754.38;;;15.63;100.00
57763;BME280;43592;42.524;12.052;2022-09-03T01:47:37;96769.06;;;15.65;100.00
57763;BME280;43592;42.524;12.052;2022-09-03T01:50:30;96759.78;;;15.63;100.00
57763;BME280;43592;42.524;12.052;2022-09-03T01:58:29;96757.00;;;15.56;100.00
57763;BME280;43592;42.524;12.052;2022-09-03T02:01:06;96763.94;;;15.57;100.00
57763;BME280;43592;42.524;12.052;2022-09-03T02:03:35;96761.66;;;15.59;100.00
57763;BME280;43592;42.524;12.052;2022-09-03T02:06:02;96758.22;;;15.62;100.00
57763;BME280;43592;42.524;12.052;2022-09-03T02:08:28;96752.06;;;15.65;100.00
57763;BME280;43592;42.524;12.052;2022-09-03T02:10:54;96760.59;;;15.67;100.00
57763;BME280;43592;42.524;12.052;2022-09-03T02:13:28;96757.88;;;15.67;100.00
57763;BME280;43592;42.524;12.052;2022-09-03T02:15:56;96760.97;;;15.65;100.00
57763;BME280;43592;42.524;12.052;2022-09-03T02:18:24;96762.09;;;15.64;100.00
57763;BME280;43592;42.524;12.052;2022-09-03T02:20:54;96772.47;;;15.62;100.00
57763;BME280;43592;42.524;12.052;2022-09-03T02:23:20;96770.91;;;15.58;100.00
57763;BME280;43592;42.524;12.052;2022-09-03T02:25:47;96767.44;;;15.57;100.00
57763;BME280;43592;42.524;12.052;2022-09-03T02:28:14;96760.84;;;15.55;100.00
57763;BME280;43592;42.524;12.052;2022-09-03T02:30:40;96766.25;;;15.55;100.00
57763;BME280;43592;42.524;12.052;2022-09-03T02:33:06;96767.75;;;15.52;100.00
57763;BME280;43592;42.524;12.052;2022-09-03T02:35:32;96763.47;;;15.51;100.00
57763;BME280;43592;42.524;12.052;2022-09-03T02:38:07;96758.88;;;15.52;100.00
57763;BME280;43592;42.524;12.052;2022-09-03T02:40:34;96756.97;;;15.52;100.00
57763;BME280;43592;42.524;12.052;2022-09-03T02:42:59;96752.34;;;15.53;100.00
57763;BME280;43592;42.524;12.052;2022-09-03T02:45:27;96753.88;;;15.54;100.00
57763;BME280;43592;42.524;12.052;2022-09-03T02:47:54;96748.88;;;15.52;100.00
57763;BME280;43592;42.524;12.052;2022-09-03T02:50:20;96755.38;;;15.51;100.00
57763;BME280;43592;42.524;12.052;2022-09-03T02:52:45;96748.03;;;15.48;100.00
57763;BME280;43592;42.524;12.052;2022-09-03T02:55:11;96756.09;;;15.44;100.00
57763;BME280;43592;42.524;12.052;2022-09-03T02:57:36;96749.91;;;15.40;100.00
57763;BME280;43592;42.524;12.052;2022-09-03T03:00:02;96757.53;;;15.35;100.00
57763;BME280;43592;42.524;12.052;2022-09-03T03:02:28;96751.25;;;15.27;100.00
57763;BME280;43592;42.524;12.052;2022-09-03T03:04:53;96752.31;;;15.19;100.00
57763;BME280;43592;42.524;12.052;2022-09-03T03:07:19;96758.44;;;15.16;100.00
57763;BME280;43592;42.524;12.052;2022-09-03T03:09:45;96749.53;;;15.12;100.00
57763;BME280;43592;42.524;12.052;2022-09-03T03:12:10;96738.34;;;15.10;100.00
57763;BME280;43592;42.524;12.052;2022-09-03T03:14:36;96743.31;;;15.08;100.00
57763;BME280;43592;42.524;12.052;2022-09-03T03:17:02;96750.25;;;15.09;100.00
57763;BME280;43592;42.524;12.052;2022-09-03T03:19:27;96747.16;;;15.07;100.00
57763;BME280;43592;42.524;12.052;2022-09-03T03:21:53;96750.59;;;15.03;100.00
57763;BME280;43592;42.524;12.052;2022-09-03T03:24:18;96745.50;;;14.98;100.00
57763;BME280;43592;42.524;12.052;2022-09-03T03:26:44;96747.75;;;14.93;100.00
57763;BME280;43592;42.524;12.052;2022-09-03T03:29:13;96760.75;;;14.87;100.00
57763;BME280;43592;42.524;12.052;2022-09-03T03:31:38;96763.41;;;14.84;100.00
57763;BME280;43592;42.524;12.052;2022-09-03T03:34:04;96762.56;;;14.79;100.00
57763;BME280;43592;42.524;12.052;2022-09-03T03:36:30;96757.91;;;14.76;100.00
57763;BME280;43592;42.524;12.052;2022-09-03T03:38:57;96747.50;;;14.75;100.00
57763;BME280;43592;42.524;12.052;2022-09-03T03:41:25;96745.59;;;14.75;100.00
57763;BME280;43592;42.524;12.052;2022-09-03T03:43:53;96733.66;;;14.76;100.00
57763;BME280;43592;42.524;12.052;2022-09-03T03:46:19;96726.78;;;14.79;100.00
57763;BME280;43592;42.524;12.052;2022-09-03T03:48:49;96724.91;;;14.83;100.00
57763;BME280;43592;42.524;12.052;2022-09-03T03:51:15;96730.44;;;14.94;100.00
57763;BME280;43592;42.524;12.052;2022-09-03T03:53:41;96728.94;;;14.96;100.00
57763;BME280;43592;42.524;12.052;2022-09-03T03:56:07;96744.66;;;14.94;100.00
57763;BME280;43592;42.524;12.052;2022-09-03T03:58:36;96743.44;;;14.88;100.00
57763;BME280;43592;42.524;12.052;2022-09-03T04:01:13;96747.59;;;14.82;100.00
57763;BME280;43592;42.524;12.052;2022-09-03T04:03:38;96753.72;;;14.79;100.00
57763;BME280;43592;42.524;12.052;2022-09-03T04:06:05;96747.56;;;14.78;100.00
57763;BME280;43592;42.524;12.052;2022-09-03T04:08:34;96747.25;;;14.84;100.00
57763;BME280;43592;42.524;12.052;2022-09-03T04:11:01;96748.47;;;14.90;100.00
57763;BME280;43592;42.524;12.052;2022-09-03T04:13:30;96747.81;;;15.00;100.00
57763;BME280;43592;42.524;12.052;2022-09-03T04:15:59;96750.22;;;15.05;100.00
57763;BME280;43592;42.524;12.052;2022-09-03T04:18:25;96754.06;;;15.04;100.00
57763;BME280;43592;42.524;12.052;2022-09-03T04:20:50;96749.41;;;15.01;100.00
57763;BME280;43592;42.524;12.052;2022-09-03T04:23:16;96750.16;;;15.01;100.00
57763;BME280;43592;42.524;12.052;2022-09-03T04:25:42;96749.09;;;15.06;100.00
57763;BME280;43592;42.524;12.052;2022-09-03T04:28:07;96754.13;;;15.11;100.00
57763;BME280;43592;42.524;12.052;2022-09-03T04:30:33;96752.31;;;15.19;100.00
57763;BME280;43592;42.524;12.052;2022-09-03T04:32:58;96761.25;;;15.23;100.00
57763;BME280;43592;42.524;12.052;2022-09-03T04:35:25;96750.53;;;15.30;100.00
57763;BME280;43592;42.524;12.052;2022-09-03T04:37:56;96739.78;;;15.34;100.00
57763;BME280;43592;42.524;12.052;2022-09-03T04:40:21;96739.47;;;15.39;100.00
57763;BME280;43592;42.524;12.052;2022-09-03T04:42:47;96732.22;;;15.43;100.00
57763;BME280;43592;42.524;12.052;2022-09-03T04:45:12;96734.19;;;15.49;100.00
57763;BME280;43592;42.524;12.052;2022-09-03T04:47:43;96731.19;;;15.55;100.00
57763;BME280;43592;42.524;12.052;2022-09-03T04:50:10;96742.03;;;15.62;100.00
57763;BME280;43592;42.524;12.052;2022-09-03T04:52:37;96730.91;;;15.67;100.00
57763;BME280;43592;42.524;12.052;2022-09-03T04:55:02;96732.91;;;15.74;100.00
57763;BME280;43592;42.524;12.052;2022-09-03T04:57:28;96731.84;;;15.82;100.00
57763;BME280;43592;42.524;12.052;2022-09-03T04:59:58;96730.78;;;15.90;100.00
57763;BME280;43592;42.524;12.052;2022-09-03T05:02:24;96742.84;;;16.00;100.00
57763;BME280;43592;42.524;12.052;2022-09-03T05:04:50;96733.66;;;16.08;100.00
57763;BME280;43592;42.524;12.052;2022-09-03T05:07:16;96741.81;;;16.19;100.00
57763;BME280;43592;42.524;12.052;2022-09-03T05:09:41;96736.53;;;16.29;100.00
57763;BME280;43592;42.524;12.052;2022-09-03T05:12:07;96747.81;;;16.42;100.00
57763;BME280;43592;42.524;12.052;2022-09-03T05:14:33;96769.09;;;16.51;100.00
57763;BME280;43592;42.524;12.052;2022-09-03T05:16:58;96782.69;;;16.61;100.00
57763;BME280;43592;42.524;12.052;2022-09-03T05:19:24;96775.81;;;16.71;100.00
57763;BME280;43592;42.524;12.052;2022-09-03T05:21:49;96777.84;;;16.81;100.00
57763;BME280;43592;42.524;12.052;2022-09-03T05:24:15;96785.25;;;16.92;100.00
57763;BME280;43592;42.524;12.052;2022-09-03T05:26:40;96795.34;;;17.02;100.00
57763;BME280;43592;42.524;12.052;2022-09-03T05:29:06;96795.78;;;17.11;100.00
57763;BME280;43592;42.524;12.052;2022-09-03T05:31:32;96786.16;;;17.21;100.00
57763;BME280;43592;42.524;12.052;2022-09-03T05:33:59;96792.03;;;17.30;100.00
57763;BME280;43592;42.524;12.052;2022-09-03T05:36:26;96791.69;;;17.39;100.00
57763;BME280;43592;42.524;12.052;2022-09-03T05:38:52;96779.34;;;17.45;100.00
57763;BME280;43592;42.524;12.052;2022-09-03T05:41:20;96770.88;;;17.50;100.00
57763;BME280;43592;42.524;12.052;2022-09-03T05:43:47;96766.63;;;17.53;100.00
57763;BME280;43592;42.524;12.052;2022-09-03T05:46:17;96771.66;;;17.58;100.00
57763;BME280;43592;42.524;12.052;2022-09-03T05:48:43;96777.06;;;17.58;100.00
57763;BME280;43592;42.524;12.052;2022-09-03T05:51:10;96771.66;;;17.58;100.00
57763;BME280;43592;42.524;12.052;2022-09-03T05:53:38;96767.03;;;17.58;100.00
57763;BME280;43592;42.524;12.052;2022-09-03T05:56:05;96769.34;;;17.60;100.00
57763;BME280;43592;42.524;12.052;2022-09-03T05:58:35;96766.63;;;17.60;100.00
57763;BME280;43592;42.524;12.052;2022-09-03T06:01:12;96760.09;;;17.61;100.00
57763;BME280;43592;42.524;12.052;2022-09-03T06:03:39;96756.63;;;17.64;100.00
57763;BME280;43592;42.524;12.052;2022-09-03T06:06:05;96754.69;;;17.68;100.00
57763;BME280;43592;42.524;12.052;2022-09-03T06:08:31;96762.03;;;17.74;100.00
57763;BME280;43592;42.524;12.052;2022-09-03T06:10:57;96762.09;;;17.78;100.00
57763;BME280;43592;42.524;12.052;2022-09-03T06:13:23;96754.38;;;17.84;100.00
57763;BME280;43592;42.524;12.052;2022-09-03T06:15:49;96759.78;;;17.91;100.00
57763;BME280;43592;42.524;12.052;2022-09-03T06:18:14;96754.41;;;17.98;100.00
57763;BME280;43592;42.524;12.052;2022-09-03T06:20:40;96747.44;;;18.08;100.00
57763;BME280;43592;42.524;12.052;2022-09-03T06:23:05;96743.97;;;18.18;100.00
57763;BME280;43592;42.524;12.052;2022-09-03T06:25:31;96745.53;;;18.30;100.00
57763;BME280;43592;42.524;12.052;2022-09-03T06:27:56;96749.38;;;18.50;100.00
57763;BME280;43592;42.524;12.052;2022-09-03T06:30:23;96741.66;;;18.77;100.00
57763;BME280;43592;42.524;12.052;2022-09-03T06:32:50;96738.09;;;19.02;100.00
57763;BME280;43592;42.524;12.052;2022-09-03T06:35:16;96740.00;;;19.19;100.00
57763;BME280;43592;42.524;12.052;2022-09-03T06:37:42;96742.28;;;19.28;100.00
57763;BME280;43592;42.524;12.052;2022-09-03T06:40:10;96753.88;;;19.32;100.00
57763;BME280;43592;42.524;12.052;2022-09-03T06:42:54;96770.91;;;19.36;100.00
57763;BME280;43592;42.524;12.052;2022-09-03T06:45:20;96781.78;;;19.36;100.00
57763;BME280;43592;42.524;12.052;2022-09-03T06:47:45;96791.09;;;19.32;100.00
57763;BME280;43592;42.524;12.052;2022-09-03T06:50:10;96786.09;;;19.26;100.00
57763;BME280;43592;42.524;12.052;2022-09-03T06:52:36;96791.53;;;19.23;100.00
57763;BME280;43592;42.524;12.052;2022-09-03T06:55:02;96788.44;;;19.17;100.00
57763;BME280;43592;42.524;12.052;2022-09-03T06:57:28;96795.44;;;19.11;100.00
57763;BME280;43592;42.524;12.052;2022-09-03T06:59:53;96785.38;;;19.08;100.00
57763;BME280;43592;42.524;12.052;2022-09-03T07:02:19;96786.53;;;19.03;100.00
57763;BME280;43592;42.524;12.052;2022-09-03T07:04:47;96785.75;;;18.99;100.00
57763;BME280;43592;42.524;12.052;2022-09-03T07:07:14;96779.56;;;18.95;100.00
57763;BME280;43592;42.524;12.052;2022-09-03T07:09:40;96777.63;;;18.92;100.00
57763;BME280;43592;42.524;12.052;2022-09-03T07:12:06;96779.19;;;18.90;100.00
57763;BME280;43592;42.524;12.052;2022-09-03T07:14:31;96806.31;;;18.90;100.00
57763;BME280;43592;42.524;12.052;2022-09-03T07:16:57;96823.34;;;18.87;100.00
57763;BME280;43592;42.524;12.052;2022-09-03T07:19:22;96837.69;;;18.87;100.00
57763;BME280;43592;42.524;12.052;2022-09-03T07:21:48;96840.41;;;18.83;100.00
57763;BME280;43592;42.524;12.052;2022-09-03T07:24:17;96831.84;;;18.85;100.00
57763;BME280;43592;42.524;12.052;2022-09-03T07:26:42;96834.56;;;18.85;100.00
57763;BME280;43592;42.524;12.052;2022-09-03T07:29:10;96832.66;;;18.86;100.00
57763;BME280;43592;42.524;12.052;2022-09-03T07:31:38;96838.84;;;18.82;100.00
57763;BME280;43592;42.524;12.052;2022-09-03T07:34:07;96841.56;;;18.82;100.00
57763;BME280;43592;42.524;12.052;2022-09-03T07:36:35;96839.22;;;18.81;100.00
57763;BME280;43592;42.524;12.052;2022-09-03T07:39:03;96845.03;;;18.79;100.00
57763;BME280;43592;42.524;12.052;2022-09-03T07:41:29;96847.38;;;18.77;100.00
57763;BME280;43592;42.524;12.052;2022-09-03T07:43:57;96862.06;;;18.76;100.00
57763;BME280;43592;42.524;12.052;2022-09-03T07:46:25;96858.19;;;18.74;100.00
57763;BME280;43592;42.524;12.052;2022-09-03T07:48:55;96867.88;;;18.71;100.00
57763;BME280;43592;42.524;12.052;2022-09-03T07:51:22;96871.72;;;18.70;100.00
57763;BME280;43592;42.524;12.052;2022-09-03T07:53:51;96885.69;;;18.69;100.00
57763;BME280;43592;42.524;12.052;2022-09-03T07:56:17;96891.47;;;18.67;100.00
57763;BME280;43592;42.524;12.052;2022-09-03T07:58:42;96904.25;;;18.67;100.00
57763;BME280;43592;42.524;12.052;2022-09-03T08:01:09;96894.59;;;18.66;100.00
57763;BME280;43592;42.524;12.052;2022-09-03T08:03:35;96899.59;;;18.63;100.00
57763;BME280;43592;42.524;12.052;2022-09-03T08:06:04;96899.22;;;18.61;100.00
57763;BME280;43592;42.524;12.052;2022-09-03T08:08:30;96914.31;;;18.59;100.00
57763;BME280;43592;42.524;12.052;2022-09-03T08:11:03;96915.06;;;18.56;100.00
57763;BME280;43592;42.524;12.052;2022-09-03T08:13:33;96913.53;;;18.51;100.00
57763;BME280;43592;42.524;12.052;2022-09-03T08:15:58;96939.47;;;18.49;100.00
57763;BME280;43592;42.524;12.052;2022-09-03T08:18:25;96947.56;;;18.45;100.00
57763;BME280;43592;42.524;12.052;2022-09-03T08:20:51;96945.25;;;18.44;100.00
57763;BME280;43592;42.524;12.052;2022-09-03T08:23:16;96954.53;;;18.43;100.00
57763;BME280;43592;42.524;12.052;2022-09-03T08:25:42;96947.56;;;18.42;100.00
57763;BME280;43592;42.524;12.052;2022-09-03T08:28:08;96947.97;;;18.40;100.00
57763;BME280;43592;42.524;12.052;2022-09-03T08:30:34;96945.25;;;18.40;100.00
57763;BME280;43592;42.524;12.052;2022-09-03T08:33:00;96944.84;;;18.38;100.00
57763;BME280;43592;42.524;12.052;2022-09-03T08:35:29;96942.91;;;18.35;100.00
57763;BME280;43592;42.524;12.052;2022-09-03T08:37:58;96949.50;;;18.37;100.00
57763;BME280;43592;42.524;12.052;2022-09-03T08:40:30;96951.41;;;18.37;100.00
57763;BME280;43592;42.524;12.052;2022-09-03T08:43:11;96940.56;;;18.37;100.00
57763;BME280;43592;42.524;12.052;2022-09-03T08:45:41;96948.31;;;18.38;100.00
57763;BME280;43592;42.524;12.052;2022-09-03T08:48:15;96958.78;;;18.40;100.00
57763;BME280;43592;42.524;12.052;2022-09-03T08:50:47;96961.88;;;18.42;100.00
57763;BME280;43592;42.524;12.052;2022-09-03T08:56:03;96959.56;;;18.44;100.00
57763;BME280;43592;42.524;12.052;2022-09-03T08:58:32;96966.53;;;18.45;100.00
57763;BME280;43592;42.524;12.052;2022-09-03T09:17:43;96946.75;;;18.30;100.00
57763;BME280;43592;42.524;12.052;2022-09-03T09:20:28;96952.16;;;18.30;100.00
57763;BME280;43592;42.524;12.052;2022-09-03T09:23:03;96956.41;;;18.31;100.00
57763;BME280;43592;42.524;12.052;2022-09-03T09:25:30;96957.59;;;18.34;100.00
57763;BME280;43592;42.524;12.052;2022-09-03T09:28:00;96952.56;;;18.36;100.00
57763;BME280;43592;42.524;12.052;2022-09-03T09:30:29;96958.41;;;18.38;100.00
57763;BME280;43592;42.524;12.052;2022-09-03T09:32:55;96962.66;;;18.39;100.00
57763;BME280;43592;42.524;12.052;2022-09-03T09:35:21;96956.84;;;18.40;100.00
57763;BME280;43592;42.524;12.052;2022-09-03T09:37:48;96954.16;;;18.44;100.00
57763;BME280;43592;42.524;12.052;2022-09-03T09:40:25;96940.22;;;18.49;100.00
57763;BME280;43592;42.524;12.052;2022-09-03T09:42:50;96933.28;;;18.55;100.00
57763;BME280;43592;42.524;12.052;2022-09-03T09:45:22;96937.16;;;18.61;100.00
57763;BME280;43592;42.524;12.052;2022-09-03T09:47:48;96951.88;;;18.64;100.00
57763;BME280;43592;42.524;12.052;2022-09-03T09:50:17;96947.63;;;18.67;100.00
57763;BME280;43592;42.524;12.052;2022-09-03T09:52:44;96956.94;;;18.66;100.00
57763;BME280;43592;42.524;12.052;2022-09-03T09:55:15;96946.09;;;18.66;100.00
57763;BME280;43592;42.524;12.052;2022-09-03T09:57:42;96961.94;;;18.67;100.00
57763;BME280;43592;42.524;12.052;2022-09-03T10:00:12;96949.94;;;18.68;100.00
57763;BME280;43592;42.524;12.052;2022-09-03T10:02:59;96952.28;;;18.70;100.00
57763;BME280;43592;42.524;12.052;2022-09-03T10:05:28;96953.81;;;18.71;100.00
57763;BME280;43592;42.524;12.052;2022-09-03T10:08:00;96957.69;;;18.70;100.00
57763;BME280;43592;42.524;12.052;2022-09-03T10:10:28;96960.03;;;18.71;100.00
57763;BME280;43592;42.524;12.052;2022-09-03T10:18:02;96953.81;;;18.63;100.00
57763;BME280;43592;42.524;12.052;2022-09-03T10:23:05;96942.19;;;18.56;100.00
57763;BME280;43592;42.524;12.052;2022-09-03T10:28:14;96929.41;;;18.60;100.00
57763;BME280;43592;42.524;12.052;2022-09-03T10:30:50;96927.88;;;18.70;100.00
57763;BME280;43592;42.524;12.052;2022-09-03T10:33:26;96936.84;;;18.81;100.00
57763;BME280;43592;42.524;12.052;2022-09-03T10:36:07;96927.94;;;18.98;100.00
57763;BME280;43592;42.524;12.052;2022-09-03T10:38:34;96931.44;;;19.17;100.00
57763;BME280;43592;42.524;12.052;2022-09-03T10:43:40;96916.28;;;19.44;100.00
57763;BME280;43592;42.524;12.052;2022-09-03T10:46:16;96913.94;;;19.57;100.00
57763;BME280;43592;42.524;12.052;2022-09-03T10:51:29;96915.81;;;19.85;100.00
57763;BME280;43592;42.524;12.052;2022-09-03T10:56:38;96907.03;;;20.40;100.00
57763;BME280;43592;42.524;12.052;2022-09-03T11:04:23;96907.78;;;21.07;100.00
57763;BME280;43592;42.524;12.052;2022-09-03T11:07:03;96901.06;;;21.19;100.00
57763;BME280;43592;42.524;12.052;2022-09-03T11:09:36;96903.75;;;21.23;100.00
57763;BME280;43592;42.524;12.052;2022-09-03T11:12:08;96904.94;;;21.22;100.00
57763;BME280;43592;42.524;12.052;2022-09-03T11:17:03;96888.69;;;21.15;100.00
57763;BME280;43592;42.524;12.052;2022-09-03T11:19:33;96895.28;;;21.14;100.00
57763;BME280;43592;42.524;12.052;2022-09-03T11:22:02;96897.22;;;21.13;100.00
57763;BME280;43592;42.524;12.052;2022-09-03T11:24:29;96893.78;;;21.05;100.00
57763;BME280;43592;42.524;12.052;2022-09-03T11:29:52;96892.28;;;21.01;100.00
57763;BME280;43592;42.524;12.052;2022-09-03T11:32:16;96883.66;;;21.10;100.00
57763;BME280;43592;42.524;12.052;2022-09-03T11:39:38;96873.38;;;21.69;100.00
57763;BME280;43592;42.524;12.052;2022-09-03T11:42:21;96873.25;;;22.41;100.00
57763;BME280;43592;42.524;12.052;2022-09-03T11:44:49;96871.09;;;23.07;100.00
57763;BME280;43592;42.524;12.052;2022-09-03T11:47:20;96875.88;;;23.66;95.07
57763;BME280;43592;42.524;12.052;2022-09-03T11:49:47;96871.59;;;24.25;91.67
57763;BME280;43592;42.524;12.052;2022-09-03T11:52:32;96878.22;;;24.80;86.64
57763;BME280;43592;42.524;12.052;2022-09-03T11:55:05;96874.44;;;25.07;86.92
57763;BME280;43592;42.524;12.052;2022-09-03T11:57:31;96875.66;;;25.22;85.04
57763;BME280;43592;42.524;12.052;2022-09-03T12:00:08;96872.31;;;25.31;84.59
57763;BME280;43592;42.524;12.052;2022-09-03T12:02:36;96867.19;;;25.62;81.52
57763;BME280;43592;42.524;12.052;2022-09-03T12:05:11;96870.16;;;25.68;80.88
57763;BME280;43592;42.524;12.052;2022-09-03T12:08:01;96861.19;;;25.80;83.51
57763;BME280;43592;42.524;12.052;2022-09-03T12:18:02;96874.97;;;24.69;84.41
57763;BME280;43592;42.524;12.052;2022-09-03T12:20:58;96862.19;;;24.10;84.78
57763;BME280;43592;42.524;12.052;2022-09-03T12:23:27;96852.69;;;23.54;86.34
57763;BME280;43592;42.524;12.052;2022-09-03T12:25:53;96847.66;;;23.09;89.29
57763;BME280;43592;42.524;12.052;2022-09-03T12:28:20;96850.91;;;22.77;90.98
57763;BME280;43592;42.524;12.052;2022-09-03T12:30:50;96860.34;;;22.46;93.73
57763;BME280;43592;42.524;12.052;2022-09-03T12:33:20;96859.47;;;22.25;95.90
57763;BME280;43592;42.524;12.052;2022-09-03T12:35:59;96867.44;;;22.09;95.52
57763;BME280;43592;42.524;12.052;2022-09-03T12:38:28;96878.88;;;21.96;96.99
57763;BME280;43592;42.524;12.052;2022-09-03T12:40:56;96871.19;;;21.88;98.92
57763;BME280;43592;42.524;12.052;2022-09-03T12:43:26;96859.63;;;21.80;99.27
57763;BME280;43592;42.524;12.052;2022-09-03T12:45:52;96864.78;;;21.71;100.00
57763;BME280;43592;42.524;12.052;2022-09-03T12:48:19;96872.28;;;21.63;100.00
57763;BME280;43592;42.524;12.052;2022-09-03T12:50:47;96870.44;;;21.53;100.00
57763;BME280;43592;42.524;12.052;2022-09-03T12:53:13;96868.59;;;21.43;100.00
57763;BME280;43592;42.524;12.052;2022-09-03T12:55:45;96872.13;;;21.36;100.00
57763;BME280;43592;42.524;12.052;2022-09-03T12:58:20;96865.22;;;21.28;100.00
57763;BME280;43592;42.524;12.052;2022-09-03T13:00:53;96860.63;;;21.21;100.00
57763;BME280;43592;42.524;12.052;2022-09-03T13:05:50;96839.72;;;21.11;100.00
57763;BME280;43592;42.524;12.052;2022-09-03T13:08:18;96828.09;;;21.07;100.00
57763;BME280;43592;42.524;12.052;2022-09-03T13:10:48;96825.44;;;21.03;100.00
57763;BME280;43592;42.524;12.052;2022-09-03T13:13:18;96839.84;;;20.97;100.00
57763;BME280;43592;42.524;12.052;2022-09-03T13:21:09;96833.81;;;20.78;100.00
57763;BME280;43592;42.524;12.052;2022-09-03T13:28:53;96866.88;;;20.70;100.00
57763;BME280;43592;42.524;12.052;2022-09-03T13:34:34;96856.81;;;20.67;100.00
57763;BME280;43592;42.524;12.052;2022-09-03T13:36:37;96868.81;;;20.69;100.00
57763;BME280;43592;42.524;12.052;2022-09-03T13:39:08;96876.19;;;20.72;100.00
57763;BME280;43592;42.524;12.052;2022-09-03T13:41:45;96865.25;;;20.79;100.00
57763;BME280;43592;42.524;12.052;2022-09-03T13:47:01;96849.16;;;20.99;100.00
57763;BME280;43592;42.524;12.052;2022-09-03T13:49:48;96867.72;;;21.08;100.00
57763;BME280;43592;42.524;12.052;2022-09-03T13:52:40;96854.38;;;21.24;100.00
57763;BME280;43592;42.524;12.052;2022-09-03T14:00:10;96844.88;;;21.78;100.00
57763;BME280;43592;42.524;12.052;2022-09-03T14:02:49;96857.44;;;21.98;100.00
57763;BME280;43592;42.524;12.052;2022-09-03T14:08:00;96849.38;;;22.22;99.11
57763;BME280;43592;42.524;12.052;2022-09-03T14:16:06;96845.34;;;22.34;95.04
57763;BME280;43592;42.524;12.052;2022-09-03T14:21:16;96850.59;;;22.48;96.51
57763;BME280;43592;42.524;12.052;2022-09-03T14:23:46;96856.91;;;22.69;96.28
57763;BME280;43592;42.524;12.052;2022-09-03T14:26:18;96875.38;;;22.84;96.32
57763;BME280;43592;42.524;12.052;2022-09-03T14:28:56;96875.69;;;22.86;93.84
57763;BME280;43592;42.524;12.052;2022-09-03T14:46:39;96813.84;;;22.29;95.33
57763;BME280;43592;42.524;12.052;2022-09-03T14:51:44;96826.88;;;22.14;96.35
57763;BME280;43592;42.524;12.052;2022-09-03T14:54:26;96847.00;;;21.93;97.91
57763;BME280;43592;42.524;12.052;2022-09-03T14:57:00;96845.31;;;21.72;99.96
57763;BME280;43592;42.524;12.052;2022-09-03T14:59:42;96843.22;;;21.53;100.00
57763;BME280;43592;42.524;12.052;2022-09-03T15:05:14;96840.47;;;21.15;100.00
57763;BME280;43592;42.524;12.052;2022-09-03T15:07:52;96829.72;;;21.01;100.00
57763;BME280;43592;42.524;12.052;2022-09-03T15:12:48;96832.63;;;20.79;100.00
57763;BME280;43592;42.524;12.052;2022-09-03T15:20:31;96792.44;;;20.49;100.00
57763;BME280;43592;42.524;12.052;2022-09-03T15:25:50;96806.16;;;20.31;100.00
57763;BME280;43592;42.524;12.052;2022-09-03T15:28:16;96815.53;;;20.23;100.00
57763;BME280;43592;42.524;12.052;2022-09-03T15:36:05;96819.16;;;20.02;100.00
57763;BME280;43592;42.524;12.052;2022-09-03T15:41:02;96821.16;;;19.87;100.00
57763;BME280;43592;42.524;12.052;2022-09-03T15:43:32;96811.88;;;19.81;100.00
57763;BME280;43592;42.524;12.052;2022-09-03T15:46:06;96826.66;;;19.77;100.00
57763;BME280;43592;42.524;12.052;2022-09-03T15:48:48;96812.72;;;19.71;100.00
57763;BME280;43592;42.524;12.052;2022-09-03T15:51:19;96804.19;;;19.65;100.00
57763;BME280;43592;42.524;12.052;2022-09-03T16:04:24;96817.03;;;19.43;100.00
57763;BME280;43592;42.524;12.052;2022-09-03T16:07:00;96815.88;;;19.44;100.00
57763;BME280;43592;42.524;12.052;2022-09-03T16:12:18;96796.88;;;19.48;100.00
57763;BME280;43592;42.524;12.052;2022-09-03T16:14:50;96818.19;;;19.46;100.00